createdAt,value
2023-06-08T00:01:55.370Z,13.90
2023-06-08T00:06:00.271Z,13.80
2023-06-08T00:10:02.378Z,13.70
2023-06-08T00:14:04.624Z,13.60
2023-06-08T00:18:10.804Z,13.00
2023-06-08T00:22:15.175Z,13.30
2023-06-08T00:26:17.353Z,13.20
2023-06-08T00:30:20.782Z,13.60
2023-06-08T00:34:23.073Z,13.70
2023-06-08T00:38:25.004Z,13.50
2023-06-08T00:42:27.509Z,13.20
2023-06-08T00:46:32.058Z,13.30
2023-06-08T00:50:34.472Z,13.60
2023-06-08T00:54:37.701Z,13.70
2023-06-08T00:58:48.045Z,13.40
2023-06-08T01:02:50.258Z,13.20
2023-06-08T01:07:16.159Z,13.20
2023-06-08T01:11:41.300Z,12.70
2023-06-08T01:15:52.148Z,12.60
2023-06-08T01:20:09.136Z,12.80
2023-06-08T01:24:18.028Z,12.50
2023-06-08T01:28:22.223Z,12.20
2023-06-08T01:32:24.791Z,11.80
2023-06-08T01:36:38.106Z,11.90
2023-06-08T01:40:46.787Z,12.30
2023-06-08T01:45:15.783Z,12.00
2023-06-08T01:49:19.186Z,12.30
2023-06-08T01:53:22.438Z,12.50
2023-06-08T01:57:24.560Z,12.50
2023-06-08T02:01:26.796Z,12.50
2023-06-08T02:05:28.844Z,12.20
2023-06-08T02:09:31.378Z,11.40
2023-06-08T02:13:35.723Z,11.70
2023-06-08T02:17:38.033Z,11.60
2023-06-08T02:21:40.284Z,11.00
2023-06-08T02:25:42.377Z,11.10
2023-06-08T02:29:44.610Z,10.90
2023-06-08T02:33:47.850Z,10.70
2023-06-08T02:37:49.907Z,10.50
2023-06-08T02:41:52.432Z,11.00
2023-06-08T02:45:54.669Z,10.70
2023-06-08T02:50:00.441Z,10.60
2023-06-08T02:54:06.065Z,10.90
2023-06-08T02:58:10.612Z,11.00
2023-06-08T03:02:12.942Z,11.20
2023-06-08T03:06:19.253Z,10.90
2023-06-08T03:10:24.489Z,10.30
2023-06-08T03:14:30.115Z,10.40
2023-06-08T03:18:35.439Z,10.10
2023-06-08T03:22:37.441Z,10.40
2023-06-08T03:26:42.417Z,10.00
2023-06-08T03:30:46.887Z,10.60
2023-06-08T03:34:51.215Z,11.30
2023-06-08T03:38:53.647Z,11.00
2023-06-08T03:42:56.402Z,11.10
2023-06-08T03:47:02.391Z,9.90
2023-06-08T03:51:08.114Z,10.10
2023-06-08T03:55:12.962Z,10.30
2023-06-08T03:59:16.178Z,9.80
2023-06-08T04:03:21.580Z,10.10
2023-06-08T04:07:24.055Z,9.80
2023-06-08T04:11:26.943Z,10.10
2023-06-08T04:15:29.110Z,9.70
2023-06-08T04:19:32.739Z,9.50
2023-06-08T04:23:37.371Z,9.90
2023-06-08T04:27:42.356Z,9.10
2023-06-08T04:31:44.862Z,9.50
2023-06-08T04:35:47.158Z,10.40
2023-06-08T04:39:50.138Z,10.40
2023-06-08T04:43:55.391Z,9.80
2023-06-08T04:47:58.885Z,10.40
2023-06-08T04:52:01.982Z,11.10
2023-06-08T04:56:04.296Z,11.60
2023-06-08T05:00:10.558Z,11.60
2023-06-08T05:04:12.779Z,12.00
2023-06-08T05:08:16.272Z,12.20
2023-06-08T05:12:18.191Z,12.30
2023-06-08T05:16:20.183Z,12.50
2023-06-08T05:20:25.454Z,12.80
2023-06-08T05:24:27.582Z,13.00
2023-06-08T05:28:29.714Z,13.20
2023-06-08T05:32:31.689Z,13.00
2023-06-08T05:36:33.739Z,13.20
2023-06-08T05:40:36.170Z,13.40
2023-06-08T05:44:38.161Z,13.20
2023-06-08T05:48:40.442Z,12.70
2023-06-08T05:52:42.654Z,12.90
2023-06-08T05:56:44.782Z,13.40
2023-06-08T06:00:47.011Z,13.60
2023-06-08T06:04:49.248Z,13.90
2023-06-08T06:08:51.765Z,14.20
2023-06-08T06:12:54.018Z,14.60
2023-06-08T06:17:06.990Z,15.10
2023-06-08T06:21:10.035Z,15.40
2023-06-08T06:25:12.182Z,15.50
2023-06-08T06:29:14.338Z,16.00
2023-06-08T06:33:16.610Z,16.00
2023-06-08T06:37:18.684Z,16.10
2023-06-08T06:41:21.763Z,16.30
2023-06-08T06:45:23.817Z,16.40
2023-06-08T06:49:26.059Z,16.30
2023-06-08T06:53:32.387Z,15.90
2023-06-08T06:57:35.300Z,16.20
2023-06-08T07:01:37.734Z,16.70
2023-06-08T07:05:39.796Z,16.80
2023-06-08T07:09:41.895Z,17.10
2023-06-08T07:13:43.932Z,16.60
2023-06-08T07:17:47.567Z,17.00
2023-06-08T07:21:56.637Z,17.20
2023-06-08T07:26:28.697Z,17.40
2023-06-08T07:30:23.528Z,17.60
2023-06-08T07:34:26.891Z,16.70
2023-06-08T07:38:29.027Z,17.20
2023-06-08T07:42:31.261Z,17.70
2023-06-08T07:46:33.651Z,17.00
2023-06-08T07:50:35.810Z,17.70
2023-06-08T07:54:38.470Z,18.10
2023-06-08T07:58:40.612Z,18.20
2023-06-08T08:02:42.934Z,18.30
2023-06-08T08:06:45.252Z,18.50
2023-06-08T08:10:47.905Z,18.60
2023-06-08T08:14:50.026Z,18.70
2023-06-08T08:18:51.931Z,18.90
2023-06-08T08:22:54.106Z,18.70
2023-06-08T08:26:56.465Z,18.80
2023-06-08T08:30:58.725Z,18.30
2023-06-08T08:35:00.859Z,18.70
2023-06-08T08:39:02.963Z,19.20
2023-06-08T08:43:13.762Z,19.40
2023-06-08T08:47:16.290Z,19.00
2023-06-08T08:51:19.953Z,19.30
2023-06-08T08:55:35.678Z,19.80
2023-06-08T08:59:38.976Z,20.00
2023-06-08T09:03:41.249Z,19.60
2023-06-08T09:07:43.438Z,19.50
2023-06-08T09:12:02.370Z,20.00
2023-06-08T09:16:21.359Z,19.70
2023-06-08T09:20:30.936Z,19.40
2023-06-08T09:24:33.619Z,19.20
2023-06-08T09:28:38.383Z,19.10
2023-06-08T09:32:40.405Z,19.20
2023-06-08T09:36:45.130Z,19.40
2023-06-08T09:40:51.091Z,19.40
2023-06-08T09:45:13.889Z,20.10
2023-06-08T09:49:17.634Z,20.50
2023-06-08T09:53:20.754Z,20.70
2023-06-08T09:57:24.369Z,20.80
2023-06-08T10:01:44.413Z,21.00
2023-06-08T10:05:48.039Z,20.20
2023-06-08T10:09:51.694Z,20.50
2023-06-08T10:13:54.442Z,20.20
2023-06-08T10:17:57.530Z,20.80
2023-06-08T10:22:00.863Z,21.10
2023-06-08T10:26:05.587Z,21.30
2023-06-08T10:30:08.088Z,21.60
2023-06-08T10:34:13.567Z,21.70
2023-06-08T10:38:18.065Z,20.60
2023-06-08T10:42:20.702Z,20.80
2023-06-08T10:46:41.415Z,20.30
2023-06-08T10:50:44.476Z,21.10
2023-06-08T10:54:59.911Z,21.40
2023-06-08T10:59:02.071Z,21.80
2023-06-08T11:03:08.350Z,21.30
2023-06-08T11:07:10.825Z,21.80
2023-06-08T11:11:12.995Z,21.90
2023-06-08T11:15:15.144Z,21.50
2023-06-08T11:19:21.462Z,21.70
2023-06-08T11:23:23.625Z,22.00
2023-06-08T11:27:25.615Z,22.30
2023-06-08T11:31:33.510Z,21.60
2023-06-08T11:35:36.278Z,22.30
2023-06-08T11:39:45.226Z,21.10
2023-06-08T11:43:50.023Z,22.00
2023-06-08T11:48:14.023Z,22.20
2023-06-08T11:52:17.187Z,21.70
2023-06-08T11:56:22.420Z,21.80
2023-06-08T12:00:29.755Z,22.00
2023-06-08T12:04:33.037Z,22.30
2023-06-08T12:08:35.682Z,22.50
2023-06-08T12:12:37.736Z,21.90
2023-06-08T12:16:44.093Z,22.20
2023-06-08T12:20:48.029Z,22.80
2023-06-08T12:24:50.220Z,23.00
2023-06-08T12:28:52.454Z,22.90
2023-06-08T12:32:56.583Z,22.90
2023-06-08T12:36:58.702Z,22.90
2023-06-08T12:41:00.710Z,22.90
2023-06-08T12:45:03.274Z,22.90
2023-06-08T12:49:05.528Z,23.00
2023-06-08T12:53:08.030Z,23.40
2023-06-08T12:57:10.471Z,23.20
2023-06-08T13:01:12.759Z,23.10
2023-06-08T13:05:14.981Z,23.30
2023-06-08T13:09:17.097Z,23.60
2023-06-08T13:13:19.399Z,23.80
2023-06-08T13:17:21.998Z,23.30
2023-06-08T13:21:24.403Z,23.20
2023-06-08T13:25:26.847Z,23.00
2023-06-08T13:29:29.361Z,22.80
2023-06-08T13:33:32.131Z,22.90
2023-06-08T13:37:34.178Z,23.20
2023-06-08T13:41:36.831Z,23.50
2023-06-08T13:45:39.617Z,23.40
2023-06-08T13:49:43.044Z,23.00
2023-06-08T13:53:45.298Z,22.60
2023-06-08T13:57:47.262Z,23.20
2023-06-08T14:01:49.655Z,23.00
2023-06-08T14:05:51.890Z,22.50
2023-06-08T14:09:53.956Z,22.20
2023-06-08T14:13:56.191Z,22.70
2023-06-08T14:17:58.942Z,21.70
2023-06-08T14:22:01.218Z,21.70
2023-06-08T14:26:03.656Z,21.50
2023-06-08T14:30:07.079Z,20.80
2023-06-08T14:34:09.559Z,20.80
2023-06-08T14:38:12.036Z,21.20
2023-06-08T14:42:14.526Z,20.60
2023-06-08T14:46:17.146Z,20.20
2023-06-08T14:50:19.279Z,21.10
2023-06-08T14:54:21.887Z,21.80
2023-06-08T14:58:24.111Z,21.40
2023-06-08T15:02:26.337Z,20.40
2023-06-08T15:06:28.471Z,20.90
2023-06-08T15:10:30.533Z,21.10
2023-06-08T15:14:32.671Z,21.30
2023-06-08T15:18:34.692Z,21.40
2023-06-08T15:22:36.771Z,21.50
2023-06-08T15:26:38.912Z,21.00
2023-06-08T15:30:41.146Z,21.00
2023-06-08T15:34:43.117Z,20.60
2023-06-08T15:38:45.120Z,21.40
2023-06-08T15:42:47.169Z,21.30
2023-06-08T15:46:49.330Z,21.80
2023-06-08T15:50:51.402Z,20.00
2023-06-08T15:54:53.420Z,21.00
2023-06-08T15:58:55.514Z,21.40
2023-06-08T16:02:57.671Z,20.70
2023-06-08T16:06:59.806Z,19.90
2023-06-08T16:11:01.869Z,19.50
2023-06-08T16:15:06.230Z,19.50
2023-06-08T16:19:08.328Z,19.50
2023-06-08T16:23:10.887Z,18.80
2023-06-08T16:27:15.986Z,20.50
2023-06-08T16:31:18.287Z,20.50
2023-06-08T16:35:20.753Z,21.20
2023-06-08T16:39:22.742Z,22.30
2023-06-08T16:43:24.703Z,23.00
2023-06-08T16:47:26.990Z,23.60
2023-06-08T16:51:29.269Z,22.90
2023-06-08T16:55:31.486Z,23.20
2023-06-08T16:59:33.477Z,22.90
2023-06-08T17:03:36.406Z,22.30
2023-06-08T17:07:39.615Z,22.10
2023-06-08T17:11:42.018Z,22.00
2023-06-08T17:15:44.663Z,21.10
2023-06-08T17:19:47.145Z,20.80
2023-06-08T17:23:49.946Z,20.20
2023-06-08T17:27:52.061Z,19.50
2023-06-08T17:31:54.558Z,19.60
2023-06-08T17:35:56.870Z,19.70
2023-06-08T17:39:58.832Z,19.80
2023-06-08T17:44:00.833Z,20.00
2023-06-08T17:48:03.002Z,19.40
2023-06-08T17:52:05.599Z,19.70
2023-06-08T17:56:07.798Z,19.90
2023-06-08T18:00:10.805Z,19.20
2023-06-08T18:04:13.076Z,19.60
2023-06-08T18:08:17.380Z,19.60
2023-06-08T18:12:19.451Z,18.10
2023-06-08T18:16:21.697Z,18.30
2023-06-08T18:20:23.922Z,19.20
2023-06-08T18:24:27.533Z,19.80
2023-06-08T18:28:29.607Z,19.50
2023-06-08T18:32:32.119Z,19.50
2023-06-08T18:36:34.249Z,18.60
2023-06-08T18:40:36.226Z,18.40
2023-06-08T18:44:38.282Z,19.00
2023-06-08T18:48:40.720Z,19.20
2023-06-08T18:52:42.770Z,19.60
2023-06-08T18:56:44.728Z,19.90
2023-06-08T19:00:47.132Z,19.70
2023-06-08T19:04:50.177Z,19.40
2023-06-08T19:08:52.783Z,19.40
2023-06-08T19:12:56.324Z,19.60
2023-06-08T19:16:59.723Z,19.70
2023-06-08T19:21:02.758Z,19.60
2023-06-08T19:25:05.476Z,19.70
2023-06-08T19:29:08.789Z,19.50
2023-06-08T19:33:11.243Z,19.50
2023-06-08T19:37:13.320Z,18.70
2023-06-08T19:41:15.512Z,18.90
2023-06-08T19:45:17.545Z,19.00
2023-06-08T19:49:20.741Z,19.00
2023-06-08T19:53:23.967Z,18.80
2023-06-08T19:57:26.355Z,18.60
2023-06-08T20:01:28.471Z,18.60
2023-06-08T20:05:30.608Z,18.60
2023-06-08T20:09:33.929Z,18.60
2023-06-08T20:13:36.438Z,18.60
2023-06-08T20:17:38.636Z,18.40
2023-06-08T20:21:42.380Z,17.80
2023-06-08T20:25:45.517Z,17.80
2023-06-08T20:29:47.658Z,17.70
2023-06-08T20:33:49.735Z,17.40
2023-06-08T20:37:51.962Z,17.30
2023-06-08T20:41:55.213Z,17.20
2023-06-08T20:45:57.273Z,16.90
2023-06-08T20:50:00.442Z,16.60
2023-06-08T20:54:02.531Z,16.70
2023-06-08T20:58:04.548Z,16.70
2023-06-08T21:02:07.264Z,16.60
2023-06-08T21:06:09.318Z,16.50
2023-06-08T21:10:11.771Z,16.50
2023-06-08T21:14:13.994Z,16.40
2023-06-08T21:18:16.212Z,16.30
2023-06-08T21:22:18.284Z,16.60
2023-06-08T21:26:20.309Z,16.60
2023-06-08T21:30:24.488Z,16.50
2023-06-08T21:34:28.491Z,16.30
2023-06-08T21:38:30.650Z,16.00
2023-06-08T21:42:32.811Z,15.90
2023-06-08T21:46:34.824Z,15.90
2023-06-08T21:50:36.938Z,16.10
2023-06-08T21:54:38.994Z,16.00
2023-06-08T21:58:41.057Z,15.90
2023-06-08T22:02:43.298Z,15.80
2023-06-08T22:06:45.529Z,15.90
2023-06-08T22:10:47.880Z,16.00
2023-06-08T22:14:53.222Z,15.80
2023-06-08T22:18:55.334Z,15.40
2023-06-08T22:22:57.297Z,15.50
2023-06-08T22:27:00.376Z,15.10
2023-06-08T22:31:02.951Z,14.90
2023-06-08T22:35:05.683Z,14.30
2023-06-08T22:39:08.657Z,14.40
2023-06-08T22:43:11.468Z,13.90
2023-06-08T22:47:13.593Z,14.20
2023-06-08T22:51:15.926Z,14.70
2023-06-08T22:55:17.999Z,14.80
2023-06-08T22:59:20.135Z,14.80
2023-06-08T23:03:23.618Z,14.90
2023-06-08T23:07:26.463Z,14.70
2023-06-08T23:11:29.344Z,14.80
2023-06-08T23:15:32.056Z,14.80
2023-06-08T23:19:34.277Z,14.80
2023-06-08T23:23:36.458Z,14.90
2023-06-08T23:27:38.637Z,14.90
2023-06-08T23:31:40.705Z,14.80
2023-06-08T23:35:43.124Z,14.60
2023-06-08T23:39:49.957Z,14.80
2023-06-08T23:43:51.987Z,14.80
2023-06-08T23:47:54.051Z,14.30
2023-06-08T23:51:56.233Z,14.20
2023-06-08T23:55:58.255Z,14.10
